createdAt,value
2022-11-27T00:00:55.173Z,10.80
2022-11-27T00:03:00.558Z,10.79
2022-11-27T00:05:04.495Z,10.79
2022-11-27T00:07:08.215Z,10.77
2022-11-27T00:09:15.212Z,10.75
2022-11-27T00:11:21.198Z,10.73
2022-11-27T00:13:25.096Z,10.72
2022-11-27T00:15:28.853Z,10.70
2022-11-27T00:17:32.944Z,10.67
2022-11-27T00:19:38.451Z,10.65
2022-11-27T00:21:42.637Z,10.64
2022-11-27T00:23:46.709Z,10.61
2022-11-27T00:25:53.553Z,10.61
2022-11-27T00:27:57.427Z,10.61
2022-11-27T00:30:01.526Z,10.58
2022-11-27T00:32:08.606Z,10.56
2022-11-27T00:34:13.056Z,10.54
2022-11-27T00:36:18.704Z,10.52
2022-11-27T00:38:22.720Z,10.52
2022-11-27T00:40:26.581Z,10.46
2022-11-27T00:42:30.268Z,10.45
2022-11-27T00:44:34.710Z,10.43
2022-11-27T00:46:38.654Z,10.40
2022-11-27T00:48:43.101Z,10.40
2022-11-27T00:50:46.813Z,10.39
2022-11-27T00:52:52.368Z,10.38
2022-11-27T00:54:56.158Z,10.36
2022-11-27T00:56:59.934Z,10.34
2022-11-27T00:59:04.472Z,10.32
2022-11-27T01:01:09.621Z,10.29
2022-11-27T01:03:14.113Z,10.30
2022-11-27T01:05:18.254Z,10.29
2022-11-27T01:07:22.814Z,10.30
2022-11-27T01:09:27.909Z,10.26
2022-11-27T01:11:33.258Z,10.27
2022-11-27T01:13:38.432Z,10.27
2022-11-27T01:15:42.221Z,10.29
2022-11-27T01:17:45.965Z,10.26
2022-11-27T01:19:50.809Z,10.27
2022-11-27T01:21:54.736Z,10.25
2022-11-27T01:23:58.615Z,10.24
2022-11-27T01:26:04.687Z,10.23
2022-11-27T01:28:08.302Z,10.21
2022-11-27T01:30:13.865Z,10.19
2022-11-27T01:32:17.478Z,10.19
2022-11-27T01:34:21.307Z,10.15
2022-11-27T01:36:25.255Z,10.13
2022-11-27T01:38:31.344Z,10.12
2022-11-27T01:40:35.442Z,10.09
2022-11-27T01:42:40.531Z,10.07
2022-11-27T01:44:56.447Z,10.06
2022-11-27T01:47:03.331Z,10.07
2022-11-27T01:49:22.977Z,10.05
2022-11-27T01:51:27.087Z,10.06
2022-11-27T01:53:30.899Z,10.06
2022-11-27T01:55:38.584Z,10.04
2022-11-27T01:57:47.290Z,10.01
2022-11-27T01:59:52.678Z,9.99
2022-11-27T02:01:56.460Z,9.98
2022-11-27T02:04:02.586Z,9.98
2022-11-27T02:06:06.793Z,9.95
2022-11-27T02:08:15.464Z,9.92
2022-11-27T02:10:19.388Z,9.91
2022-11-27T02:12:26.109Z,9.91
2022-11-27T02:14:38.830Z,9.90
2022-11-27T02:16:49.624Z,9.90
2022-11-27T02:19:00.052Z,9.89
2022-11-27T02:21:11.502Z,9.88
2022-11-27T02:23:42.800Z,9.88
2022-11-27T02:25:58.348Z,9.87
2022-11-27T02:28:19.193Z,9.87
2022-11-27T02:30:23.992Z,9.87
2022-11-27T02:32:31.070Z,9.87
2022-11-27T02:34:44.528Z,9.86
2022-11-27T02:36:50.894Z,9.84
2022-11-27T02:39:00.953Z,9.83
2022-11-27T02:41:08.854Z,9.82
2022-11-27T02:43:16.168Z,9.81
2022-11-27T02:45:27.440Z,9.79
2022-11-27T02:47:32.237Z,9.74
2022-11-27T02:49:38.590Z,9.73
2022-11-27T02:51:46.236Z,9.71
2022-11-27T02:53:54.246Z,9.72
2022-11-27T02:55:59.798Z,9.72
2022-11-27T02:58:07.166Z,9.70
2022-11-27T03:00:11.979Z,9.69
2022-11-27T03:02:22.600Z,9.68
2022-11-27T03:04:32.460Z,9.67
2022-11-27T03:06:43.056Z,9.64
2022-11-27T03:08:53.471Z,9.65
2022-11-27T03:11:02.846Z,9.65
2022-11-27T03:13:06.343Z,9.65
2022-11-27T03:15:10.704Z,9.65
2022-11-27T03:17:28.184Z,9.65
2022-11-27T03:19:39.267Z,9.64
2022-11-27T03:21:45.238Z,9.63
2022-11-27T03:23:48.526Z,9.63
2022-11-27T03:25:53.055Z,9.63
2022-11-27T03:27:59.596Z,9.63
2022-11-27T03:30:05.908Z,9.64
2022-11-27T03:32:09.334Z,9.63
2022-11-27T03:34:14.221Z,9.62
2022-11-27T03:36:19.306Z,9.61
2022-11-27T03:38:22.596Z,9.60
2022-11-27T03:40:31.233Z,9.60
2022-11-27T03:42:45.710Z,9.58
2022-11-27T03:44:55.616Z,9.59
2022-11-27T03:47:11.981Z,9.59
2022-11-27T03:49:25.982Z,9.59
2022-11-27T03:51:40.441Z,9.58
2022-11-27T03:53:53.390Z,9.58
2022-11-27T03:56:08.435Z,9.57
2022-11-27T03:58:20.911Z,9.56
2022-11-27T04:00:24.809Z,9.56
2022-11-27T04:02:32.508Z,9.56
2022-11-27T04:04:37.299Z,9.55
2022-11-27T04:06:40.786Z,9.56
2022-11-27T04:08:44.387Z,9.55
2022-11-27T04:10:48.014Z,9.55
2022-11-27T04:12:51.329Z,9.54
2022-11-27T04:14:54.606Z,9.54
2022-11-27T04:16:57.912Z,9.52
2022-11-27T04:19:01.292Z,9.49
2022-11-27T04:21:06.172Z,9.48
2022-11-27T04:23:10.149Z,9.46
2022-11-27T04:25:13.517Z,9.43
2022-11-27T04:27:16.925Z,9.42
2022-11-27T04:29:20.234Z,9.42
2022-11-27T04:31:23.486Z,9.42
2022-11-27T04:33:26.960Z,9.38
2022-11-27T04:35:30.211Z,9.36
2022-11-27T04:37:34.870Z,9.34
2022-11-27T04:39:38.136Z,9.30
2022-11-27T04:41:41.450Z,9.28
2022-11-27T04:43:44.830Z,9.27
2022-11-27T04:45:48.096Z,9.27
2022-11-27T04:47:51.430Z,9.24
2022-11-27T04:49:54.666Z,9.23
2022-11-27T04:51:58.007Z,9.22
2022-11-27T04:54:02.754Z,9.21
2022-11-27T04:56:06.448Z,9.18
2022-11-27T04:58:09.712Z,9.19
2022-11-27T05:00:14.012Z,9.17
2022-11-27T05:02:17.303Z,9.17
2022-11-27T05:04:20.547Z,9.14
2022-11-27T05:06:23.900Z,9.14
2022-11-27T05:08:27.583Z,9.13
2022-11-27T05:10:32.426Z,9.12
2022-11-27T05:12:35.834Z,9.11
2022-11-27T05:14:39.896Z,9.08
2022-11-27T05:16:43.529Z,9.07
2022-11-27T05:18:46.793Z,9.06
2022-11-27T05:20:56.623Z,9.06
2022-11-27T05:22:59.938Z,9.06
2022-11-27T05:25:03.326Z,9.04
2022-11-27T05:27:08.002Z,9.04
2022-11-27T05:29:12.053Z,9.04
2022-11-27T05:31:15.444Z,9.04
2022-11-27T05:33:20.211Z,9.03
2022-11-27T05:35:23.478Z,9.02
2022-11-27T05:37:26.694Z,9.01
2022-11-27T05:39:30.031Z,8.97
2022-11-27T05:41:33.288Z,8.95
2022-11-27T05:43:38.537Z,8.95
2022-11-27T05:45:41.740Z,8.94
2022-11-27T05:47:44.991Z,8.94
2022-11-27T05:49:48.408Z,8.93
2022-11-27T05:51:52.058Z,8.93
2022-11-27T05:53:55.658Z,8.92
2022-11-27T05:56:03.271Z,8.92
2022-11-27T05:58:06.529Z,8.92
2022-11-27T06:00:12.819Z,8.94
2022-11-27T06:02:20.872Z,8.93
2022-11-27T06:04:27.190Z,8.92
2022-11-27T06:06:30.578Z,8.91
2022-11-27T06:08:33.855Z,8.91
2022-11-27T06:10:39.093Z,8.91
2022-11-27T06:12:42.656Z,8.90
2022-11-27T06:14:45.849Z,8.90
2022-11-27T06:16:50.835Z,8.90
2022-11-27T06:18:56.391Z,8.88
2022-11-27T06:20:59.669Z,8.84
2022-11-27T06:23:02.924Z,8.83
2022-11-27T06:25:07.020Z,8.81
2022-11-27T06:27:10.595Z,8.80
2022-11-27T06:29:13.962Z,8.79
2022-11-27T06:31:19.817Z,8.78
2022-11-27T06:33:24.544Z,8.80
2022-11-27T06:35:27.762Z,8.81
2022-11-27T06:37:31.913Z,8.81
2022-11-27T06:39:35.576Z,8.80
2022-11-27T06:41:39.512Z,8.82
2022-11-27T06:43:45.914Z,8.84
2022-11-27T06:45:56.960Z,8.84
2022-11-27T06:48:00.447Z,8.84
2022-11-27T06:50:07.702Z,8.86
2022-11-27T06:52:11.348Z,8.87
2022-11-27T06:54:15.042Z,8.87
2022-11-27T06:56:20.849Z,8.85
2022-11-27T06:58:29.528Z,8.83
2022-11-27T07:00:34.804Z,8.80
2022-11-27T07:02:38.671Z,8.79
2022-11-27T07:04:42.476Z,8.75
2022-11-27T07:06:47.888Z,8.74
2022-11-27T07:08:51.641Z,8.72
2022-11-27T07:10:55.292Z,8.72
2022-11-27T07:12:58.938Z,8.73
2022-11-27T07:15:04.397Z,8.73
2022-11-27T07:17:08.274Z,8.76
2022-11-27T07:19:12.423Z,8.76
2022-11-27T07:21:15.947Z,8.76
2022-11-27T07:23:21.174Z,8.76
2022-11-27T07:25:24.672Z,8.75
2022-11-27T07:27:28.251Z,8.70
2022-11-27T07:29:31.925Z,8.67
2022-11-27T07:31:35.961Z,8.59
2022-11-27T07:33:39.926Z,8.58
2022-11-27T07:35:43.899Z,8.55
2022-11-27T07:37:47.541Z,8.54
2022-11-27T07:40:02.353Z,8.56
2022-11-27T07:42:36.406Z,8.57
2022-11-27T07:44:31.779Z,8.51
2022-11-27T07:46:35.627Z,8.47
2022-11-27T07:48:40.230Z,8.38
2022-11-27T07:50:43.941Z,8.31
2022-11-27T07:52:47.851Z,8.27
2022-11-27T07:54:53.228Z,8.25
2022-11-27T07:56:56.776Z,8.25
2022-11-27T07:59:00.334Z,8.26
2022-11-27T08:01:08.935Z,8.20
2022-11-27T08:03:12.813Z,8.13
2022-11-27T08:05:17.192Z,8.13
2022-11-27T08:07:21.089Z,8.16
2022-11-27T08:09:24.928Z,8.16
2022-11-27T08:11:33.120Z,8.15
2022-11-27T08:13:36.809Z,8.13
2022-11-27T08:15:40.400Z,8.12
2022-11-27T08:17:44.095Z,8.05
2022-11-27T08:19:47.822Z,8.03
2022-11-27T08:21:51.752Z,8.06
2022-11-27T08:23:55.801Z,8.07
2022-11-27T08:25:59.630Z,8.00
2022-11-27T08:28:04.826Z,8.03
2022-11-27T08:30:09.912Z,8.03
2022-11-27T08:32:14.011Z,8.05
2022-11-27T08:34:18.002Z,8.01
2022-11-27T08:36:22.695Z,8.04
2022-11-27T08:38:26.877Z,8.07
2022-11-27T08:40:30.861Z,8.08
2022-11-27T08:42:34.764Z,8.11
2022-11-27T08:44:40.234Z,8.12
2022-11-27T08:46:45.061Z,8.07
2022-11-27T08:48:49.415Z,8.04
2022-11-27T08:50:55.338Z,8.06
2022-11-27T08:52:59.901Z,8.03
2022-11-27T08:55:04.804Z,8.02
2022-11-27T08:57:08.630Z,8.04
2022-11-27T08:59:12.548Z,8.08
2022-11-27T09:01:19.954Z,8.11
2022-11-27T09:03:23.700Z,8.17
2022-11-27T09:05:27.792Z,8.24
2022-11-27T09:07:31.666Z,8.33
2022-11-27T09:09:36.340Z,8.40
2022-11-27T09:11:40.574Z,8.48
2022-11-27T09:13:45.305Z,8.53
2022-11-27T09:15:49.318Z,8.60
2022-11-27T09:17:54.652Z,8.65
2022-11-27T09:19:58.529Z,8.69
2022-11-27T09:22:02.941Z,8.75
2022-11-27T09:24:07.712Z,8.81
2022-11-27T09:26:13.661Z,8.87
2022-11-27T09:28:17.645Z,8.89
2022-11-27T09:30:22.644Z,8.88
2022-11-27T09:32:26.327Z,8.91
2022-11-27T09:34:37.151Z,8.97
2022-11-27T09:36:41.293Z,9.02
2022-11-27T09:38:46.051Z,9.06
2022-11-27T09:40:51.542Z,9.08
2022-11-27T09:42:59.028Z,9.08
2022-11-27T09:45:04.652Z,9.09
2022-11-27T09:47:17.259Z,9.11
2022-11-27T09:49:26.818Z,9.19
2022-11-27T09:51:36.729Z,9.23
2022-11-27T09:53:47.693Z,9.30
2022-11-27T09:55:55.852Z,9.36
2022-11-27T09:58:04.406Z,9.44
2022-11-27T10:00:16.707Z,9.49
2022-11-27T10:02:25.461Z,9.52
2022-11-27T10:04:39.852Z,9.53
2022-11-27T10:07:10.639Z,9.57
2022-11-27T10:09:23.925Z,9.67
2022-11-27T10:11:31.865Z,9.71
2022-11-27T10:13:50.784Z,9.82
2022-11-27T10:15:59.663Z,9.95
2022-11-27T10:18:10.953Z,10.07
2022-11-27T10:20:23.896Z,10.18
2022-11-27T10:22:40.653Z,10.31
2022-11-27T10:24:51.272Z,10.39
2022-11-27T10:27:00.487Z,10.48
2022-11-27T10:29:14.439Z,10.53
2022-11-27T10:31:24.965Z,10.62
2022-11-27T10:33:37.249Z,10.72
2022-11-27T10:35:50.743Z,10.82
2022-11-27T10:38:06.432Z,10.97
2022-11-27T10:40:23.142Z,11.10
2022-11-27T10:42:34.619Z,11.18
2022-11-27T10:44:43.698Z,11.21
2022-11-27T10:46:48.703Z,11.14
2022-11-27T10:48:53.604Z,11.07
2022-11-27T10:50:58.400Z,11.03
2022-11-27T10:53:08.103Z,11.04
2022-11-27T10:55:37.024Z,11.12
2022-11-27T10:58:02.276Z,11.16
2022-11-27T11:00:13.789Z,11.18
2022-11-27T11:02:30.827Z,11.17
2022-11-27T11:04:48.356Z,11.15
2022-11-27T11:07:00.252Z,11.04
2022-11-27T11:09:15.410Z,10.95
2022-11-27T11:11:28.220Z,10.84
2022-11-27T11:13:33.287Z,10.80
2022-11-27T11:15:51.902Z,10.80
2022-11-27T11:17:56.270Z,10.85
2022-11-27T11:20:01.022Z,10.90
2022-11-27T11:22:15.097Z,10.94
2022-11-27T11:24:30.369Z,10.95
2022-11-27T11:26:41.004Z,10.99
2022-11-27T11:28:51.609Z,11.06
2022-11-27T11:31:01.459Z,11.10
2022-11-27T11:33:06.283Z,11.11
2022-11-27T11:35:24.551Z,11.10
2022-11-27T11:37:31.535Z,11.09
2022-11-27T11:39:45.917Z,11.05
2022-11-27T11:41:50.462Z,11.06
2022-11-27T11:43:59.824Z,11.06
2022-11-27T11:46:11.312Z,11.07
2022-11-27T11:48:24.086Z,11.08
2022-11-27T11:50:35.651Z,11.09
2022-11-27T11:52:57.657Z,11.12
2022-11-27T11:55:09.419Z,11.15
2022-11-27T11:57:39.790Z,11.13
2022-11-27T11:59:48.680Z,11.09
2022-11-27T12:02:20.191Z,11.04
2022-11-27T12:04:45.666Z,10.99
2022-11-27T12:06:57.102Z,10.93
2022-11-27T12:09:17.020Z,10.86
2022-11-27T12:11:31.594Z,10.80
2022-11-27T12:13:51.961Z,10.65
2022-11-27T12:16:06.960Z,10.52
2022-11-27T12:18:22.005Z,10.40
2022-11-27T12:20:31.339Z,10.24
2022-11-27T12:22:52.068Z,10.08
2022-11-27T12:25:04.474Z,9.92
2022-11-27T12:27:23.071Z,9.82
2022-11-27T12:29:52.930Z,9.74
2022-11-27T12:32:21.371Z,9.70
2022-11-27T12:34:33.473Z,9.76
2022-11-27T12:37:01.441Z,9.83
2022-11-27T12:39:25.789Z,9.95
2022-11-27T12:41:56.810Z,10.07
2022-11-27T12:44:02.102Z,10.13
2022-11-27T12:46:14.904Z,10.15
2022-11-27T12:48:24.997Z,10.18
2022-11-27T12:50:39.956Z,10.20
2022-11-27T12:52:47.669Z,10.21
2022-11-27T12:54:57.434Z,10.20
2022-11-27T12:57:05.591Z,10.20
2022-11-27T12:59:18.160Z,10.18
2022-11-27T13:01:27.660Z,10.19
2022-11-27T13:03:39.169Z,10.18
2022-11-27T13:05:46.842Z,10.18
2022-11-27T13:07:54.979Z,10.16
2022-11-27T13:10:04.545Z,10.11
2022-11-27T13:12:10.843Z,10.07
2022-11-27T13:14:20.752Z,10.05
2022-11-27T13:16:30.287Z,10.02
2022-11-27T13:18:38.591Z,10.01
2022-11-27T13:20:46.231Z,10.02
2022-11-27T13:22:53.565Z,10.01
2022-11-27T13:25:03.164Z,10.01
2022-11-27T13:27:12.171Z,9.99
2022-11-27T13:29:26.600Z,9.97
2022-11-27T13:31:36.438Z,9.95
2022-11-27T13:33:45.259Z,9.91
2022-11-27T13:35:50.176Z,9.89
2022-11-27T13:38:00.423Z,9.81
2022-11-27T13:40:08.490Z,9.78
2022-11-27T13:42:22.706Z,9.77
2022-11-27T13:44:31.191Z,9.77
2022-11-27T13:46:48.650Z,9.78
2022-11-27T13:48:56.388Z,9.81
2022-11-27T13:51:01.692Z,9.83
2022-11-27T13:53:08.603Z,9.86
2022-11-27T13:55:12.452Z,9.85
2022-11-27T13:57:18.283Z,9.86
2022-11-27T13:59:24.150Z,9.88
2022-11-27T14:01:29.823Z,9.91
2022-11-27T14:03:36.752Z,9.95
2022-11-27T14:05:43.183Z,9.95
2022-11-27T14:07:49.828Z,9.92
2022-11-27T14:09:55.904Z,9.92
2022-11-27T14:12:00.113Z,9.89
2022-11-27T14:14:14.369Z,9.88
2022-11-27T14:16:28.286Z,9.82
2022-11-27T14:18:34.646Z,9.77
2022-11-27T14:20:48.406Z,9.75
2022-11-27T14:23:10.964Z,9.71
2022-11-27T14:25:22.038Z,9.69
2022-11-27T14:27:28.245Z,9.63
2022-11-27T14:29:32.213Z,9.59
2022-11-27T14:31:37.525Z,9.61
2022-11-27T14:34:13.715Z,9.58
2022-11-27T14:36:23.039Z,9.57
2022-11-27T14:38:29.087Z,9.55
2022-11-27T14:40:33.021Z,9.53
2022-11-27T14:42:39.336Z,9.54
2022-11-27T14:44:43.133Z,9.56
2022-11-27T14:46:46.965Z,9.55
2022-11-27T14:48:56.348Z,9.55
2022-11-27T14:51:01.167Z,9.57
2022-11-27T14:53:04.962Z,9.58
2022-11-27T14:55:16.334Z,9.59
2022-11-27T14:57:25.572Z,9.60
2022-11-27T14:59:29.691Z,9.59
2022-11-27T15:01:35.183Z,9.57
2022-11-27T15:03:40.253Z,9.55
2022-11-27T15:05:55.143Z,9.55
2022-11-27T15:08:00.402Z,9.55
2022-11-27T15:10:09.080Z,9.53
2022-11-27T15:12:19.917Z,9.52
2022-11-27T15:14:24.205Z,9.49
2022-11-27T15:16:29.886Z,9.48
2022-11-27T15:18:38.337Z,9.48
2022-11-27T15:20:44.547Z,9.44
2022-11-27T15:22:54.869Z,9.40
2022-11-27T15:25:02.947Z,9.37
2022-11-27T15:27:19.266Z,9.39
2022-11-27T15:29:37.042Z,9.32
2022-11-27T15:31:40.989Z,9.29
2022-11-27T15:33:45.125Z,9.28
2022-11-27T15:35:53.799Z,9.26
2022-11-27T15:38:04.879Z,9.23
2022-11-27T15:40:26.656Z,9.22
2022-11-27T15:42:30.858Z,9.21
2022-11-27T15:44:34.904Z,9.21
2022-11-27T15:46:38.959Z,9.18
2022-11-27T15:48:43.434Z,9.15
2022-11-27T15:50:51.720Z,9.10
2022-11-27T15:52:56.029Z,9.08
2022-11-27T15:55:01.119Z,9.06
2022-11-27T15:57:05.331Z,9.04
2022-11-27T15:59:10.364Z,9.02
2022-11-27T16:01:14.136Z,9.02
2022-11-27T16:03:18.463Z,9.00
2022-11-27T16:05:22.658Z,8.98
2022-11-27T16:07:26.917Z,8.97
2022-11-27T16:09:31.132Z,8.97
2022-11-27T16:11:36.693Z,8.92
2022-11-27T16:13:40.599Z,8.91
2022-11-27T16:15:46.522Z,8.90
2022-11-27T16:17:54.238Z,8.87
2022-11-27T16:19:58.331Z,8.87
2022-11-27T16:22:03.216Z,8.85
2022-11-27T16:24:09.080Z,8.84
2022-11-27T16:26:14.579Z,8.84
2022-11-27T16:28:20.374Z,8.85
2022-11-27T16:30:25.282Z,8.84
2022-11-27T16:32:30.986Z,8.84
2022-11-27T16:34:35.581Z,8.83
2022-11-27T16:36:42.056Z,8.81
2022-11-27T16:38:47.850Z,8.80
2022-11-27T16:40:51.970Z,8.80
2022-11-27T16:42:56.268Z,8.80
2022-11-27T16:45:03.169Z,8.79
2022-11-27T16:47:06.808Z,8.78
2022-11-27T16:49:11.343Z,8.79
2022-11-27T16:51:19.035Z,8.79
2022-11-27T16:53:22.822Z,8.76
2022-11-27T16:55:27.508Z,8.75
2022-11-27T16:57:31.256Z,8.73
2022-11-27T16:59:38.187Z,8.71
2022-11-27T17:01:43.790Z,8.69
2022-11-27T17:03:47.477Z,8.68
2022-11-27T17:05:51.639Z,8.65
2022-11-27T17:07:56.687Z,8.64
2022-11-27T17:10:00.671Z,8.65
2022-11-27T17:12:04.854Z,8.69
2022-11-27T17:14:11.077Z,8.67
2022-11-27T17:16:16.111Z,8.68
2022-11-27T17:18:21.575Z,8.67
2022-11-27T17:20:25.999Z,8.67
2022-11-27T17:22:31.451Z,8.64
2022-11-27T17:24:36.110Z,8.61
2022-11-27T17:26:43.745Z,8.61
2022-11-27T17:28:49.283Z,8.60
2022-11-27T17:30:54.331Z,8.61
2022-11-27T17:32:59.708Z,8.62
2022-11-27T17:35:05.469Z,8.61
2022-11-27T17:37:09.426Z,8.61
2022-11-27T17:39:14.965Z,8.61
2022-11-27T17:41:19.886Z,8.59
2022-11-27T17:43:25.775Z,8.59
2022-11-27T17:45:29.485Z,8.59
2022-11-27T17:47:34.853Z,8.58
2022-11-27T17:49:40.034Z,8.55
2022-11-27T17:51:47.395Z,8.55
2022-11-27T17:53:51.735Z,8.54
2022-11-27T17:55:57.950Z,8.54
2022-11-27T17:58:05.117Z,8.54
2022-11-27T18:00:11.367Z,8.54
2022-11-27T18:02:18.388Z,8.53
2022-11-27T18:04:25.279Z,8.54
2022-11-27T18:06:30.367Z,8.53
2022-11-27T18:08:36.908Z,8.54
2022-11-27T18:10:41.428Z,8.54
2022-11-27T18:12:46.136Z,8.55
2022-11-27T18:14:57.892Z,8.53
2022-11-27T18:17:07.215Z,8.54
2022-11-27T18:19:14.070Z,8.54
2022-11-27T18:21:21.048Z,8.54
2022-11-27T18:23:25.114Z,8.54
2022-11-27T18:25:31.057Z,8.54
2022-11-27T18:27:35.833Z,8.55
2022-11-27T18:29:42.812Z,8.56
2022-11-27T18:31:47.853Z,8.56
2022-11-27T18:33:52.217Z,8.58
2022-11-27T18:35:56.524Z,8.55
2022-11-27T18:38:00.926Z,8.56
2022-11-27T18:40:06.273Z,8.55
2022-11-27T18:42:11.665Z,8.56
2022-11-27T18:44:15.394Z,8.57
2022-11-27T18:46:20.098Z,8.56
2022-11-27T18:48:24.742Z,8.58
2022-11-27T18:50:30.367Z,8.60
2022-11-27T18:52:34.290Z,8.66
2022-11-27T18:54:39.873Z,8.62
2022-11-27T18:56:44.636Z,8.50
2022-11-27T18:58:52.151Z,8.33
2022-11-27T19:00:57.774Z,8.14
2022-11-27T19:03:01.834Z,7.99
2022-11-27T19:05:07.748Z,7.87
2022-11-27T19:07:12.605Z,7.72
2022-11-27T19:09:17.440Z,7.65
2022-11-27T19:11:33.415Z,7.58
2022-11-27T19:13:39.007Z,7.52
2022-11-27T19:15:46.431Z,7.47
2022-11-27T19:17:50.729Z,7.45
2022-11-27T19:19:57.378Z,7.43
2022-11-27T19:22:03.052Z,7.41
2022-11-27T19:24:08.829Z,7.36
2022-11-27T19:26:15.408Z,7.33
2022-11-27T19:28:20.324Z,7.27
2022-11-27T19:30:28.179Z,7.25
2022-11-27T19:32:37.529Z,7.17
2022-11-27T19:34:45.623Z,7.15
2022-11-27T19:36:50.342Z,7.09
2022-11-27T19:38:58.147Z,7.04
2022-11-27T19:41:04.881Z,6.99
2022-11-27T19:43:10.089Z,6.94
2022-11-27T19:45:15.623Z,6.93
2022-11-27T19:47:26.500Z,6.94
2022-11-27T19:49:34.352Z,6.95
2022-11-27T19:51:41.949Z,6.96
2022-11-27T19:53:48.723Z,6.99
2022-11-27T19:55:55.950Z,7.01
2022-11-27T19:58:04.169Z,6.94
2022-11-27T20:00:14.753Z,6.91
2022-11-27T20:02:19.535Z,6.90
2022-11-27T20:04:25.471Z,6.86
2022-11-27T20:06:32.009Z,6.88
2022-11-27T20:08:38.209Z,6.91
2022-11-27T20:10:43.013Z,6.95
2022-11-27T20:12:47.490Z,7.01
2022-11-27T20:14:52.941Z,7.11
2022-11-27T20:17:19.373Z,7.21
2022-11-27T20:19:24.737Z,7.32
2022-11-27T20:21:33.224Z,7.40
2022-11-27T20:23:38.565Z,7.47
2022-11-27T20:25:50.283Z,7.53
2022-11-27T20:27:57.876Z,7.59
2022-11-27T20:30:03.031Z,7.63
2022-11-27T20:32:07.323Z,7.65
2022-11-27T20:34:16.840Z,7.69
2022-11-27T20:36:27.239Z,7.72
2022-11-27T20:38:34.958Z,7.72
2022-11-27T20:40:41.816Z,7.74
2022-11-27T20:42:46.998Z,7.77
2022-11-27T20:44:54.284Z,7.79
2022-11-27T20:46:58.889Z,7.81
2022-11-27T20:49:03.097Z,7.83
2022-11-27T20:51:08.990Z,7.81
2022-11-27T20:53:14.001Z,7.79
2022-11-27T20:55:20.352Z,7.77
2022-11-27T20:57:28.613Z,7.74
2022-11-27T20:59:34.580Z,7.72
2022-11-27T21:01:39.432Z,7.69
2022-11-27T21:03:43.756Z,7.70
2022-11-27T21:05:48.991Z,7.69
2022-11-27T21:07:53.433Z,7.63
2022-11-27T21:09:59.067Z,7.56
2022-11-27T21:12:06.850Z,7.52
2022-11-27T21:14:14.257Z,7.57
2022-11-27T21:16:19.283Z,7.62
2022-11-27T21:18:24.385Z,7.65
2022-11-27T21:20:30.956Z,7.66
2022-11-27T21:22:36.153Z,7.70
2022-11-27T21:24:40.112Z,7.71
2022-11-27T21:26:47.878Z,7.75
2022-11-27T21:28:54.622Z,7.74
2022-11-27T21:31:07.564Z,7.74
2022-11-27T21:33:12.630Z,7.73
2022-11-27T21:35:17.675Z,7.71
2022-11-27T21:37:22.220Z,7.70
2022-11-27T21:39:27.028Z,7.69
2022-11-27T21:41:32.257Z,7.68
2022-11-27T21:43:37.335Z,7.67
2022-11-27T21:45:43.131Z,7.67
2022-11-27T21:47:48.029Z,7.66
2022-11-27T21:49:52.562Z,7.65
2022-11-27T21:51:57.308Z,7.66
2022-11-27T21:54:09.980Z,7.65
2022-11-27T21:56:17.202Z,7.65
2022-11-27T21:58:21.121Z,7.67
2022-11-27T22:00:25.833Z,7.70
2022-11-27T22:02:31.439Z,7.73
2022-11-27T22:04:35.527Z,7.75
2022-11-27T22:06:41.449Z,7.74
2022-11-27T22:08:47.057Z,7.73
2022-11-27T22:10:51.312Z,7.73
2022-11-27T22:12:55.373Z,7.72
2022-11-27T22:15:00.221Z,7.70
2022-11-27T22:17:04.713Z,7.71
2022-11-27T22:19:10.542Z,7.72
2022-11-27T22:21:16.318Z,7.72
2022-11-27T22:23:20.955Z,7.72
2022-11-27T22:25:27.545Z,7.73
2022-11-27T22:27:32.386Z,7.72
2022-11-27T22:29:36.721Z,7.73
2022-11-27T22:31:40.902Z,7.70
2022-11-27T22:33:45.719Z,7.66
2022-11-27T22:35:51.773Z,7.66
2022-11-27T22:37:57.546Z,7.68
2022-11-27T22:40:01.601Z,7.69
2022-11-27T22:42:06.022Z,7.70
2022-11-27T22:44:12.764Z,7.69
2022-11-27T22:46:20.180Z,7.71
2022-11-27T22:48:24.589Z,7.73
2022-11-27T22:50:28.731Z,7.75
2022-11-27T22:52:34.916Z,7.77
2022-11-27T22:54:40.060Z,7.76
2022-11-27T22:56:46.145Z,7.77
2022-11-27T22:58:58.213Z,7.78
2022-11-27T23:01:16.034Z,7.79
2022-11-27T23:03:19.828Z,7.78
2022-11-27T23:05:24.038Z,7.78
2022-11-27T23:07:28.528Z,7.81
2022-11-27T23:09:35.140Z,7.82
2022-11-27T23:11:39.094Z,7.82
2022-11-27T23:13:49.449Z,7.83
2022-11-27T23:15:53.954Z,7.84
2022-11-27T23:17:59.229Z,7.82
2022-11-27T23:20:03.169Z,7.83
2022-11-27T23:22:08.167Z,7.81
2022-11-27T23:24:15.473Z,7.81
2022-11-27T23:26:25.562Z,7.81
2022-11-27T23:28:31.184Z,7.80
2022-11-27T23:30:36.692Z,7.79
2022-11-27T23:32:40.953Z,7.79
2022-11-27T23:34:45.056Z,7.79
2022-11-27T23:36:49.179Z,7.79
2022-11-27T23:38:53.209Z,7.78
2022-11-27T23:40:57.319Z,7.78
2022-11-27T23:43:03.006Z,7.78
2022-11-27T23:45:07.934Z,7.79
2022-11-27T23:47:12.341Z,7.78
2022-11-27T23:49:17.227Z,7.77
2022-11-27T23:51:23.906Z,7.75
2022-11-27T23:53:29.933Z,7.74
2022-11-27T23:55:35.519Z,7.72
2022-11-27T23:57:39.781Z,7.73
2022-11-27T23:59:45.616Z,7.73
